Dewey, IL (61840)

5:41 PM CST on February 14, 2016 (GMT -0600)
Dewey, IL | | Change Station
CLOSE
Current Station
Personal Weather Station
Location: Dewey, IL
Elevation: 715 ft
Nearby Weather Stations
Active Advisory: Winter Weather Advisory Active Notice: Local Storm Report

Elev 715 ft 40.28 °N, 88.31 °W | Updated 15 seconds ago

Snow
Snow
19.9 °F
Feels Like 11 °F
N
7.4
Wind Variable Wind from ENE
Gusts 9.8 mph

Today
High -- | Low -- °F
--% Chance of Precip.
Yesterday
High -- | Low -- °F
Precip. -- in
Pressure 30.04 in
Visibility 4.0 miles
Clouds Overcast 2000 ft
Windchill 11 °F
Dew Point 17 °F
Humidity 88%
Rainfall 0.00 in
Snow Depth Not available.
6:48 AM 5:26 PM
Waxing Crescent, 46% visible
METAR KTIP 142315Z AUTO 13013KT 4SM -SN OVC020 M06/M08 A3004 RMK AO2 T10591083
Pressure 30.04 in
Visibility 4.0 miles
Clouds Overcast 2000 ft
Windchill 11 °F
Dew Point 17 °F
Humidity 88%
Rainfall 0.00 in
Snow Depth Not available.
6:48 AM 5:26 PM
Waxing Crescent, 46% visible
METAR KTIP 142315Z AUTO 13013KT 4SM -SN OVC020 M06/M08 A3004 RMK AO2 T10591083

10-Day Weather Forecast

Almanac

Astronomy

Feb. 14, 2016 Rise Set
Actual Time
Civil Twilight
Nautical Twilight
Astronomical Twilight
Moon
Length of Visible Light
Length of Day
Tomorrow will be .
, % of the Moon is Illuminated

Today's Extremes

State Highs State Lows

Community

WunderPhotos

Upload Photos

1,892,929 photos uploaded!

WunderBlog® & News

Nearby

Air Quality

  Air Quality AQ Index Pollutant
Not available.

Snow Depth

Station Depth Elevation

Earthquake Activity

City Distance Mag. Time & Date
Minimum magnitude displayed is 2.5.

Coastal Water Temperatures

Place Temperature

Stations

Nearby Weather Stations

Station Location Temp. Windchill Dew Point Humidity Wind Precip. Elev Updated Type
                   

Watches & Warnings

Winter Weather Advisory
Issued: 3:00 PM CST Feb. 14, 2016 – National Weather Service

... Winter Weather Advisory remains in effect until 6 PM CST this
evening...

* timing... light snow will gradually diminish along and northeast
of a Macomb to Springfield to Lawrenceville line through 6 PM.

* Snow accumulations... 2 to 4 inches of snow fell across the area
through mid afternoon. Less than 1 inch of additional snow will
occur by 6 PM from I-74 north and near the Indiana border.
Patchy freezing drizzle will also be possible late this
afternoon or evening.

* Wind... southeast winds of 10 to 20 mph with gusts of 20 to 25
mph this afternoon will diminish to 5 to 15 mph this evening.

* Main impact... snow-covered roads will create hazardous travel
conditions. Brisk southeasterly winds will cause some blowing
and drifting snow until dusk.

Precautionary/preparedness actions...

A Winter Weather Advisory for snow means that periods of snow
will cause primarily travel difficulties. Be prepared for snow
covered roads and limited visibilities... and use caution while
driving.



07